createdAt,value
2023-04-02T00:03:10.602Z,47.79
2023-04-02T00:08:29.522Z,47.27
2023-04-02T00:13:36.999Z,47.68
2023-04-02T00:18:42.303Z,46.71
2023-04-02T00:23:44.263Z,45.41
2023-04-02T00:28:45.872Z,46.83
2023-04-02T00:33:47.517Z,46.61
2023-04-02T00:38:49.091Z,47.51
2023-04-02T00:43:51.311Z,48.25
2023-04-02T00:49:00.406Z,47.03
2023-04-02T00:54:04.372Z,48.28
2023-04-02T00:59:26.554Z,46.89
2023-04-02T01:04:34.190Z,46.63
2023-04-02T01:10:33.079Z,47.01
2023-04-02T01:15:40.476Z,47.61
2023-04-02T01:20:47.726Z,48.06
2023-04-02T01:26:00.011Z,48.02
2023-04-02T01:31:01.883Z,47.67
2023-04-02T01:36:51.994Z,48.71
2023-04-02T01:42:14.257Z,48.36
2023-04-02T01:47:17.568Z,47.81
2023-04-02T01:52:25.520Z,47.44
2023-04-02T01:57:27.352Z,46.88
2023-04-02T02:02:28.912Z,47.77
2023-04-02T02:07:30.586Z,46.46
2023-04-02T02:12:32.037Z,45.11
2023-04-02T02:17:34.743Z,47.90
2023-04-02T02:22:38.771Z,47.59
2023-04-02T02:28:00.210Z,49.43
2023-04-02T02:33:06.568Z,47.53
2023-04-02T02:38:23.766Z,46.25
2023-04-02T02:43:25.438Z,45.69
2023-04-02T02:48:33.042Z,46.52
2023-04-02T02:53:34.499Z,47.75
2023-04-02T02:58:35.992Z,47.81
2023-04-02T03:03:37.718Z,50.51
2023-04-02T03:08:57.877Z,50.78
2023-04-02T03:14:06.741Z,50.51
2023-04-02T03:19:15.688Z,48.91
2023-04-02T03:24:41.682Z,48.32
2023-04-02T03:29:46.338Z,47.61
2023-04-02T03:34:55.710Z,49.08
2023-04-02T03:40:07.144Z,50.09
2023-04-02T03:45:19.401Z,49.15
2023-04-02T03:50:27.997Z,48.11
2023-04-02T03:55:33.961Z,48.59
2023-04-02T04:01:00.916Z,50.11
2023-04-02T04:06:09.579Z,50.57
2023-04-02T04:11:15.934Z,50.48
2023-04-02T04:16:20.736Z,50.18
2023-04-02T04:21:30.884Z,51.29
2023-04-02T04:26:42.722Z,50.97
2023-04-02T04:31:55.249Z,51.65
2023-04-02T04:37:01.804Z,53.72
2023-04-02T04:42:03.356Z,53.32
2023-04-02T04:47:07.437Z,49.58
2023-04-02T04:52:33.068Z,46.77
2023-04-02T04:57:36.212Z,44.66
2023-04-02T05:02:48.985Z,45.83
2023-04-02T05:07:59.797Z,45.47
2023-04-02T05:13:21.510Z,45.42
2023-04-02T05:18:22.798Z,47.41
2023-04-02T05:23:28.926Z,49.03
2023-04-02T05:28:50.516Z,48.89
2023-04-02T05:33:51.969Z,47.91
2023-04-02T05:38:53.541Z,44.57
2023-04-02T05:44:07.603Z,48.17
2023-04-02T05:49:11.776Z,47.18
2023-04-02T05:54:23.153Z,45.68
2023-04-02T05:59:27.201Z,45.00
2023-04-02T06:04:50.551Z,45.85
2023-04-02T06:10:04.940Z,44.55
2023-04-02T06:15:12.068Z,44.78
2023-04-02T06:20:15.646Z,45.25
2023-04-02T06:25:25.216Z,44.99
2023-04-02T06:30:31.405Z,45.60
2023-04-02T06:35:34.459Z,46.25
2023-04-02T06:40:41.919Z,46.38
2023-04-02T06:45:43.528Z,46.50
2023-04-02T06:51:09.221Z,45.48
2023-04-02T06:56:22.152Z,44.36
2023-04-02T07:01:28.574Z,44.17
2023-04-02T07:06:30.254Z,43.53
2023-04-02T07:11:31.707Z,44.75
2023-04-02T07:16:33.646Z,43.62
2023-04-02T07:21:35.310Z,46.01
2023-04-02T07:26:36.823Z,44.97
2023-04-02T07:31:39.054Z,43.84
2023-04-02T07:36:40.611Z,42.71
2023-04-02T07:41:55.220Z,44.36
2023-04-02T07:46:56.744Z,44.07
2023-04-02T07:51:58.231Z,44.22
2023-04-02T07:56:59.740Z,46.26
2023-04-02T08:02:02.346Z,44.46
2023-04-02T08:07:03.868Z,47.06
2023-04-02T08:12:05.457Z,43.55
2023-04-02T08:17:06.952Z,46.74
2023-04-02T08:22:08.410Z,45.04
2023-04-02T08:27:13.762Z,44.53
2023-04-02T08:32:18.101Z,43.49
2023-04-02T08:37:19.598Z,44.14
2023-04-02T08:43:02.871Z,44.33
2023-04-02T08:48:05.437Z,45.83
2023-04-02T08:53:12.597Z,45.39
2023-04-02T08:58:42.864Z,43.89
2023-04-02T09:03:47.930Z,44.02
2023-04-02T09:08:50.096Z,44.58
2023-04-02T09:13:55.924Z,45.36
2023-04-02T09:18:57.381Z,45.17
2023-04-02T09:23:58.834Z,44.96
2023-04-02T09:29:24.621Z,41.96
2023-04-02T09:34:27.881Z,43.78
2023-04-02T09:39:29.414Z,44.17
2023-04-02T09:44:31.143Z,44.43
2023-04-02T09:49:34.353Z,44.52
2023-04-02T09:54:41.688Z,41.98
2023-04-02T09:59:43.195Z,42.59
2023-04-02T10:04:47.686Z,43.00
2023-04-02T10:09:51.213Z,41.34
2023-04-02T10:14:52.712Z,42.04
2023-04-02T10:20:17.884Z,41.15
2023-04-02T10:25:20.419Z,40.82
2023-04-02T10:30:39.924Z,40.74
2023-04-02T10:35:58.057Z,40.73
2023-04-02T10:41:09.394Z,39.53
2023-04-02T10:46:29.377Z,37.62
2023-04-02T10:51:51.841Z,39.21
2023-04-02T10:56:53.449Z,38.50
2023-04-02T11:01:55.665Z,38.64
2023-04-02T11:07:11.084Z,38.62
2023-04-02T11:12:22.814Z,37.21
2023-04-02T11:17:24.300Z,38.15
2023-04-02T11:22:25.899Z,36.85
2023-04-02T11:27:29.173Z,35.94
2023-04-02T11:32:39.421Z,37.21
2023-04-02T11:37:45.373Z,37.78
2023-04-02T11:42:47.966Z,38.58
2023-04-02T11:48:01.625Z,37.10
2023-04-02T11:53:04.111Z,36.98
2023-04-02T11:58:14.482Z,35.77
2023-04-02T12:03:21.651Z,34.07
2023-04-02T12:08:28.171Z,33.97
2023-04-02T12:13:41.489Z,35.02
2023-04-02T12:18:53.713Z,34.36
2023-04-02T12:23:57.447Z,35.46
2023-04-02T12:29:21.674Z,33.72
2023-04-02T12:34:32.882Z,34.51
2023-04-02T12:39:34.433Z,34.68
2023-04-02T12:44:35.948Z,35.45
2023-04-02T12:49:40.660Z,34.52
2023-04-02T12:54:52.488Z,35.47
2023-04-02T13:00:23.450Z,35.27
2023-04-02T13:05:36.272Z,35.80
2023-04-02T13:10:37.939Z,34.42
2023-04-02T13:15:39.633Z,35.04
2023-04-02T13:20:41.721Z,36.54
2023-04-02T13:25:43.863Z,36.24
2023-04-02T13:30:46.118Z,38.18
2023-04-02T13:35:47.605Z,36.26
2023-04-02T13:40:49.106Z,35.71
2023-04-02T13:45:51.635Z,36.49
2023-04-02T13:50:53.221Z,36.46
2023-04-02T13:55:54.693Z,37.83
2023-04-02T14:00:56.747Z,37.55
2023-04-02T14:06:06.955Z,35.28
2023-04-02T14:11:18.891Z,35.15
2023-04-02T14:16:36.628Z,36.19
2023-04-02T14:21:41.606Z,36.55
2023-04-02T14:27:04.676Z,35.59
2023-04-02T14:32:21.119Z,34.70
2023-04-02T14:38:07.274Z,35.91
2023-04-02T14:43:25.771Z,34.04
2023-04-02T14:48:51.206Z,34.59
2023-04-02T14:54:02.877Z,37.01
2023-04-02T14:59:17.107Z,38.73
2023-04-02T15:04:26.612Z,36.11
2023-04-02T15:09:46.820Z,38.23
2023-04-02T15:14:50.775Z,37.26
2023-04-02T15:19:52.239Z,35.54
2023-04-02T15:25:03.868Z,36.05
2023-04-02T15:30:08.988Z,37.13
2023-04-02T15:35:34.577Z,34.73
2023-04-02T15:40:57.288Z,35.80
2023-04-02T15:46:17.131Z,34.72
2023-04-02T15:51:43.700Z,36.75
2023-04-02T15:57:02.096Z,36.37
2023-04-02T16:02:37.712Z,35.36
2023-04-02T16:08:07.067Z,36.05
2023-04-02T16:13:33.860Z,37.04
2023-04-02T16:18:59.155Z,36.30
2023-04-02T16:24:00.779Z,33.89
2023-04-02T16:29:19.384Z,32.69
2023-04-02T16:34:30.334Z,32.74
2023-04-02T16:39:36.733Z,35.87
2023-04-02T16:44:56.558Z,34.79
2023-04-02T16:50:12.898Z,32.91
2023-04-02T16:55:39.307Z,33.49
2023-04-02T17:00:57.648Z,32.41
2023-04-02T17:06:06.051Z,32.39
2023-04-02T17:11:08.748Z,31.63
2023-04-02T17:16:21.730Z,32.91
2023-04-02T17:21:27.604Z,33.91
2023-04-02T17:26:30.044Z,31.01
2023-04-02T17:31:34.119Z,31.35
2023-04-02T17:37:03.421Z,30.01
2023-04-02T17:42:10.322Z,29.83
2023-04-02T17:47:27.387Z,30.61
2023-04-02T17:52:32.923Z,30.15
2023-04-02T17:58:07.686Z,30.02
2023-04-02T18:03:17.968Z,31.39
2023-04-02T18:08:58.540Z,32.78
2023-04-02T18:14:03.898Z,31.55
2023-04-02T18:19:16.218Z,31.52
2023-04-02T18:24:28.432Z,33.27
2023-04-02T18:29:32.150Z,33.40
2023-04-02T18:34:52.033Z,34.31
2023-04-02T18:39:56.987Z,32.80
2023-04-02T18:45:02.023Z,33.47
2023-04-02T18:50:18.674Z,34.57
2023-04-02T18:55:21.939Z,35.18
2023-04-02T19:00:34.622Z,34.97
2023-04-02T19:06:05.925Z,35.41
2023-04-02T19:11:11.312Z,35.79
2023-04-02T19:16:25.762Z,35.56
2023-04-02T19:21:56.036Z,37.40
2023-04-02T19:27:02.746Z,36.71
2023-04-02T19:32:29.262Z,36.68
2023-04-02T19:37:41.535Z,35.88
2023-04-02T19:42:49.702Z,37.30
2023-04-02T19:47:51.235Z,36.19
2023-04-02T19:52:53.328Z,36.62
2023-04-02T19:58:01.282Z,36.60
2023-04-02T20:03:14.463Z,36.40
2023-04-02T20:08:16.006Z,35.50
2023-04-02T20:13:18.085Z,34.93
2023-04-02T20:18:20.430Z,36.02
2023-04-02T20:23:21.910Z,35.95
2023-04-02T20:28:24.292Z,36.99
2023-04-02T20:33:26.180Z,35.97
2023-04-02T20:38:27.927Z,35.38
2023-04-02T20:43:29.394Z,36.72
2023-04-02T20:48:32.171Z,38.39
2023-04-02T20:53:34.511Z,37.41
2023-04-02T20:58:36.270Z,37.55
2023-04-02T21:03:39.673Z,36.64
2023-04-02T21:08:41.257Z,37.60
2023-04-02T21:13:44.212Z,37.65
2023-04-02T21:18:45.892Z,37.83
2023-04-02T21:23:47.372Z,38.06
2023-04-02T21:28:49.021Z,38.31
2023-04-02T21:33:51.938Z,37.15
2023-04-02T21:39:00.695Z,36.98
2023-04-02T21:44:03.249Z,37.24
2023-04-02T21:49:04.808Z,36.75
2023-04-02T21:54:06.305Z,37.40
2023-04-02T21:59:08.662Z,37.48
2023-04-02T22:04:14.508Z,38.10
2023-04-02T22:09:17.891Z,38.53
2023-04-02T22:14:19.340Z,38.38
2023-04-02T22:19:20.864Z,38.73
2023-04-02T22:24:22.522Z,38.60
2023-04-02T22:29:24.074Z,38.91
2023-04-02T22:34:25.522Z,39.98
2023-04-02T22:39:26.980Z,38.99
2023-04-02T22:44:28.425Z,39.45
2023-04-02T22:49:29.929Z,39.20
2023-04-02T22:54:31.389Z,38.96
2023-04-02T22:59:32.844Z,39.39
2023-04-02T23:04:34.340Z,39.41
2023-04-02T23:09:36.332Z,38.93
2023-04-02T23:14:37.816Z,39.33
2023-04-02T23:19:39.291Z,39.34
2023-04-02T23:24:40.856Z,38.93
2023-04-02T23:29:42.304Z,38.48
2023-04-02T23:34:43.788Z,37.01
2023-04-02T23:39:45.245Z,37.63
2023-04-02T23:44:46.696Z,38.04
2023-04-02T23:49:48.166Z,37.69
2023-04-02T23:54:49.628Z,38.06
2023-04-02T23:59:51.078Z,37.46
